sensor_id;sensor_type;location;lat;lon;timestamp;pressure;altitude;pressure_sealevel;temperature;humidity
65329;BME280;51941;52.210;5.158;2023-03-05T00:02:07;102231.25;;;4.81;93.56
65329;BME280;51941;52.210;5.158;2023-03-05T00:04:33;102223.72;;;4.78;93.77
65329;BME280;51941;52.210;5.158;2023-03-05T00:07:00;102179.34;;;4.51;93.74
65329;BME280;51941;52.210;5.158;2023-03-05T00:09:27;102224.38;;;4.80;93.93
65329;BME280;51941;52.210;5.158;2023-03-05T00:11:53;102216.50;;;4.80;93.69
65329;BME280;51941;52.210;5.158;2023-03-05T00:14:22;102216.81;;;4.77;93.82
65329;BME280;51941;52.210;5.158;2023-03-05T00:16:48;102212.22;;;4.71;93.80
65329;BME280;51941;52.210;5.158;2023-03-05T00:19:15;102200.66;;;4.56;93.93
65329;BME280;51941;52.210;5.158;2023-03-05T00:21:42;102201.63;;;4.55;94.27
65329;BME280;51941;52.210;5.158;2023-03-05T00:24:11;102211.00;;;4.57;94.55
65329;BME280;51941;52.210;5.158;2023-03-05T00:26:38;102219.38;;;4.61;94.73
65329;BME280;51941;52.210;5.158;2023-03-05T00:29:07;102216.09;;;4.59;94.88
65329;BME280;51941;52.210;5.158;2023-03-05T00:31:35;102211.16;;;4.56;95.11
65329;BME280;51941;52.210;5.158;2023-03-05T00:34:04;102195.72;;;4.45;94.91
65329;BME280;51941;52.210;5.158;2023-03-05T00:36:32;102212.94;;;4.55;95.08
65329;BME280;51941;52.210;5.158;2023-03-05T00:38:59;102212.94;;;4.55;95.28
65329;BME280;51941;52.210;5.158;2023-03-05T00:41:26;102204.25;;;4.55;95.51
65329;BME280;51941;52.210;5.158;2023-03-05T00:43:52;102190.47;;;4.45;95.43
65329;BME280;51941;52.210;5.158;2023-03-05T00:46:20;102202.13;;;4.50;95.61
65329;BME280;51941;52.210;5.158;2023-03-05T00:48:48;102172.69;;;4.30;95.75
65329;BME280;51941;52.210;5.158;2023-03-05T00:51:15;102202.75;;;4.44;95.76
65329;BME280;51941;52.210;5.158;2023-03-05T00:53:42;102184.97;;;4.30;95.60
65329;BME280;51941;52.210;5.158;2023-03-05T00:56:09;102191.03;;;4.30;95.49
65329;BME280;51941;52.210;5.158;2023-03-05T00:58:36;102191.66;;;4.24;95.59
65329;BME280;51941;52.210;5.158;2023-03-05T01:01:03;102193.44;;;4.16;95.45
65329;BME280;51941;52.210;5.158;2023-03-05T01:03:32;102189.94;;;4.07;95.58
65329;BME280;51941;52.210;5.158;2023-03-05T01:06:02;102168.72;;;3.92;95.84
65329;BME280;51941;52.210;5.158;2023-03-05T01:08:29;102185.09;;;3.95;95.95
65329;BME280;51941;52.210;5.158;2023-03-05T01:10:56;102182.81;;;3.91;96.30
65329;BME280;51941;52.210;5.158;2023-03-05T01:13:23;102176.06;;;3.89;96.46
65329;BME280;51941;52.210;5.158;2023-03-05T01:15:50;102160.78;;;3.84;96.57
65329;BME280;51941;52.210;5.158;2023-03-05T01:18:17;102150.44;;;3.75;96.44
65329;BME280;51941;52.210;5.158;2023-03-05T01:20:45;102166.03;;;3.84;97.00
65329;BME280;51941;52.210;5.158;2023-03-05T01:23:13;102160.16;;;3.82;97.09
65329;BME280;51941;52.210;5.158;2023-03-05T01:25:40;102159.63;;;3.79;97.34
65329;BME280;51941;52.210;5.158;2023-03-05T01:28:07;102157.47;;;3.74;97.48
65329;BME280;51941;52.210;5.158;2023-03-05T01:30:34;102133.28;;;3.54;97.64
65329;BME280;51941;52.210;5.158;2023-03-05T01:33:01;102150.16;;;3.60;97.62
65329;BME280;51941;52.210;5.158;2023-03-05T01:35:28;102150.31;;;3.59;97.77
65329;BME280;51941;52.210;5.158;2023-03-05T01:37:55;102148.84;;;3.56;98.11
65329;BME280;51941;52.210;5.158;2023-03-05T01:40:25;102140.00;;;3.57;98.24
65329;BME280;51941;52.210;5.158;2023-03-05T01:42:58;102142.31;;;3.60;98.65
65329;BME280;51941;52.210;5.158;2023-03-05T01:45:24;102138.28;;;3.66;98.85
65329;BME280;51941;52.210;5.158;2023-03-05T01:47:51;102133.09;;;3.74;98.88
65329;BME280;51941;52.210;5.158;2023-03-05T01:50:21;102130.38;;;3.83;98.78
65329;BME280;51941;52.210;5.158;2023-03-05T01:52:53;102127.28;;;3.88;98.85
65329;BME280;51941;52.210;5.158;2023-03-05T01:55:23;102095.28;;;3.76;98.83
65329;BME280;51941;52.210;5.158;2023-03-05T01:57:54;102116.53;;;3.99;98.82
65329;BME280;51941;52.210;5.158;2023-03-05T02:00:24;102115.06;;;4.05;98.87
65329;BME280;51941;52.210;5.158;2023-03-05T02:02:52;102111.00;;;4.10;98.78
65329;BME280;51941;52.210;5.158;2023-03-05T02:05:23;102107.09;;;4.14;98.77
65329;BME280;51941;52.210;5.158;2023-03-05T02:07:53;102105.81;;;4.18;98.70
65329;BME280;51941;52.210;5.158;2023-03-05T02:10:22;102099.41;;;4.13;98.82
65329;BME280;51941;52.210;5.158;2023-03-05T02:12:51;102100.22;;;4.13;99.07
65329;BME280;51941;52.210;5.158;2023-03-05T02:15:19;102045.75;;;3.83;99.06
65329;BME280;51941;52.210;5.158;2023-03-05T02:17:47;102066.63;;;4.09;98.67
65329;BME280;51941;52.210;5.158;2023-03-05T02:20:15;102078.97;;;4.24;98.70
65329;BME280;51941;52.210;5.158;2023-03-05T02:22:44;102068.78;;;4.21;98.65
65329;BME280;51941;52.210;5.158;2023-03-05T02:25:13;102058.16;;;4.23;98.70
65329;BME280;51941;52.210;5.158;2023-03-05T02:27:43;102066.53;;;4.26;98.57
65329;BME280;51941;52.210;5.158;2023-03-05T02:30:13;102011.59;;;4.01;98.67
65329;BME280;51941;52.210;5.158;2023-03-05T02:32:39;102053.59;;;4.25;98.48
65329;BME280;51941;52.210;5.158;2023-03-05T02:35:07;102051.44;;;4.28;98.62
65329;BME280;51941;52.210;5.158;2023-03-05T02:37:34;102051.16;;;4.32;98.28
65329;BME280;51941;52.210;5.158;2023-03-05T02:40:04;102048.22;;;4.35;98.49
65329;BME280;51941;52.210;5.158;2023-03-05T02:42:31;102054.09;;;4.37;98.24
65329;BME280;51941;52.210;5.158;2023-03-05T02:44:59;102031.50;;;4.27;98.30
65329;BME280;51941;52.210;5.158;2023-03-05T02:47:26;102046.56;;;4.34;98.39
65329;BME280;51941;52.210;5.158;2023-03-05T02:49:54;102033.78;;;4.30;98.39
65329;BME280;51941;52.210;5.158;2023-03-05T02:52:21;102027.53;;;4.23;97.96
65329;BME280;51941;52.210;5.158;2023-03-05T02:54:50;102033.59;;;4.24;98.06
65329;BME280;51941;52.210;5.158;2023-03-05T02:57:18;102019.97;;;4.12;97.97
65329;BME280;51941;52.210;5.158;2023-03-05T02:59:45;102021.59;;;4.05;98.03
65329;BME280;51941;52.210;5.158;2023-03-05T03:02:12;102015.19;;;4.00;98.08
65329;BME280;51941;52.210;5.158;2023-03-05T03:04:39;102028.59;;;3.97;98.26
65329;BME280;51941;52.210;5.158;2023-03-05T03:07:06;102021.56;;;3.97;98.62
65329;BME280;51941;52.210;5.158;2023-03-05T03:09:33;102004.88;;;3.98;99.25
65329;BME280;51941;52.210;5.158;2023-03-05T03:12:00;101970.09;;;3.80;99.37
65329;BME280;51941;52.210;5.158;2023-03-05T03:14:30;101997.69;;;4.08;99.56
65329;BME280;51941;52.210;5.158;2023-03-05T03:16:57;101998.34;;;4.10;99.71
65329;BME280;51941;52.210;5.158;2023-03-05T03:19:23;101995.41;;;4.13;99.88
65329;BME280;51941;52.210;5.158;2023-03-05T03:21:50;101999.19;;;4.19;99.80
65329;BME280;51941;52.210;5.158;2023-03-05T03:24:19;101998.88;;;4.22;99.71
65329;BME280;51941;52.210;5.158;2023-03-05T03:26:46;101993.63;;;4.22;100.00
65329;BME280;51941;52.210;5.158;2023-03-05T03:29:14;101997.56;;;4.26;100.00
65329;BME280;51941;52.210;5.158;2023-03-05T03:31:43;101991.00;;;4.30;99.92
65329;BME280;51941;52.210;5.158;2023-03-05T03:34:10;101984.63;;;4.33;99.81
65329;BME280;51941;52.210;5.158;2023-03-05T03:36:37;101990.41;;;4.36;99.69
65329;BME280;51941;52.210;5.158;2023-03-05T03:39:04;101973.50;;;4.30;100.00
65329;BME280;51941;52.210;5.158;2023-03-05T03:41:31;101989.22;;;4.39;100.00
65329;BME280;51941;52.210;5.158;2023-03-05T03:43:58;101980.38;;;4.40;100.00
65329;BME280;51941;52.210;5.158;2023-03-05T03:46:25;101980.38;;;4.40;100.00
65329;BME280;51941;52.210;5.158;2023-03-05T03:48:53;101933.50;;;4.12;100.00
65329;BME280;51941;52.210;5.158;2023-03-05T03:51:20;101943.00;;;4.13;100.00
65329;BME280;51941;52.210;5.158;2023-03-05T03:53:47;101974.81;;;4.35;100.00
65329;BME280;51941;52.210;5.158;2023-03-05T03:56:13;101969.88;;;4.32;100.00
65329;BME280;51941;52.210;5.158;2023-03-05T03:58:40;101970.88;;;4.30;100.00
65329;BME280;51941;52.210;5.158;2023-03-05T04:01:07;101953.66;;;4.20;100.00
65329;BME280;51941;52.210;5.158;2023-03-05T04:03:34;101957.75;;;4.30;100.00
65329;BME280;51941;52.210;5.158;2023-03-05T04:06:02;101952.53;;;4.30;100.00
65329;BME280;51941;52.210;5.158;2023-03-05T04:08:29;101957.44;;;4.34;100.00
65329;BME280;51941;52.210;5.158;2023-03-05T04:10:56;101954.00;;;4.33;100.00
65329;BME280;51941;52.210;5.158;2023-03-05T04:13:22;101936.31;;;4.19;100.00
65329;BME280;51941;52.210;5.158;2023-03-05T04:15:49;101947.28;;;4.30;100.00
65329;BME280;51941;52.210;5.158;2023-03-05T04:18:16;101948.41;;;4.28;100.00
65329;BME280;51941;52.210;5.158;2023-03-05T04:20:42;101948.41;;;4.28;100.00
65329;BME280;51941;52.210;5.158;2023-03-05T04:23:10;101949.22;;;4.28;100.00
65329;BME280;51941;52.210;5.158;2023-03-05T04:25:37;101945.16;;;4.26;100.00
65329;BME280;51941;52.210;5.158;2023-03-05T04:28:04;101940.06;;;4.24;100.00
65329;BME280;51941;52.210;5.158;2023-03-05T04:30:31;101939.09;;;4.25;100.00
65329;BME280;51941;52.210;5.158;2023-03-05T04:32:58;101938.13;;;4.26;100.00
65329;BME280;51941;52.210;5.158;2023-03-05T04:35:25;101933.69;;;4.27;100.00
65329;BME280;51941;52.210;5.158;2023-03-05T04:37:52;101929.28;;;4.27;100.00
65329;BME280;51941;52.210;5.158;2023-03-05T04:40:20;101926.47;;;4.29;100.00
65329;BME280;51941;52.210;5.158;2023-03-05T04:42:47;101925.50;;;4.30;100.00
65329;BME280;51941;52.210;5.158;2023-03-05T04:45:13;101922.72;;;4.32;100.00
65329;BME280;51941;52.210;5.158;2023-03-05T04:47:42;101920.91;;;4.32;100.00
65329;BME280;51941;52.210;5.158;2023-03-05T04:50:10;101920.91;;;4.32;100.00
65329;BME280;51941;52.210;5.158;2023-03-05T04:52:38;101915.66;;;4.32;100.00
65329;BME280;51941;52.210;5.158;2023-03-05T04:55:06;101917.47;;;4.32;100.00
65329;BME280;51941;52.210;5.158;2023-03-05T04:57:34;101873.38;;;4.03;100.00
65329;BME280;51941;52.210;5.158;2023-03-05T05:00:01;101910.09;;;4.27;100.00
65329;BME280;51941;52.210;5.158;2023-03-05T05:02:31;101912.22;;;4.23;100.00
65329;BME280;51941;52.210;5.158;2023-03-05T05:04:57;101906.81;;;4.25;100.00
65329;BME280;51941;52.210;5.158;2023-03-05T05:07:24;101898.47;;;4.21;100.00
65329;BME280;51941;52.210;5.158;2023-03-05T05:09:51;101903.84;;;4.20;100.00
65329;BME280;51941;52.210;5.158;2023-03-05T05:12:18;101895.69;;;4.15;100.00
65329;BME280;51941;52.210;5.158;2023-03-05T05:14:46;101889.28;;;4.01;100.00
65329;BME280;51941;52.210;5.158;2023-03-05T05:17:13;101863.72;;;3.87;100.00
65329;BME280;51941;52.210;5.158;2023-03-05T05:19:39;101890.91;;;4.02;100.00
65329;BME280;51941;52.210;5.158;2023-03-05T05:22:06;101893.50;;;4.02;100.00
65329;BME280;51941;52.210;5.158;2023-03-05T05:24:33;101895.50;;;4.00;100.00
65329;BME280;51941;52.210;5.158;2023-03-05T05:26:59;101886.16;;;3.98;100.00
65329;BME280;51941;52.210;5.158;2023-03-05T05:29:26;101879.94;;;3.99;100.00
65329;BME280;51941;52.210;5.158;2023-03-05T05:31:54;101887.97;;;4.05;100.00
65329;BME280;51941;52.210;5.158;2023-03-05T05:34:21;101883.22;;;4.09;100.00
65329;BME280;51941;52.210;5.158;2023-03-05T05:36:49;101885.66;;;4.10;100.00
65329;BME280;51941;52.210;5.158;2023-03-05T05:39:16;101887.00;;;4.14;100.00
65329;BME280;51941;52.210;5.158;2023-03-05T05:41:43;101877.19;;;4.16;100.00
65329;BME280;51941;52.210;5.158;2023-03-05T05:44:09;101869.16;;;4.10;100.00
65329;BME280;51941;52.210;5.158;2023-03-05T05:46:36;101873.72;;;4.16;100.00
65329;BME280;51941;52.210;5.158;2023-03-05T05:49:04;101873.91;;;4.22;100.00
65329;BME280;51941;52.210;5.158;2023-03-05T05:51:31;101873.91;;;4.22;100.00
65329;BME280;51941;52.210;5.158;2023-03-05T05:53:58;101864.53;;;4.20;100.00
65329;BME280;51941;52.210;5.158;2023-03-05T05:56:25;101864.53;;;4.20;100.00
65329;BME280;51941;52.210;5.158;2023-03-05T05:58:51;101864.75;;;4.18;100.00
65329;BME280;51941;52.210;5.158;2023-03-05T06:01:21;101856.38;;;4.15;100.00
65329;BME280;51941;52.210;5.158;2023-03-05T06:03:48;101836.22;;;3.99;100.00
65329;BME280;51941;52.210;5.158;2023-03-05T06:06:19;101855.22;;;4.09;100.00
65329;BME280;51941;52.210;5.158;2023-03-05T06:08:46;101825.25;;;3.87;100.00
65329;BME280;51941;52.210;5.158;2023-03-05T06:11:14;101842.59;;;3.97;100.00
65329;BME280;51941;52.210;5.158;2023-03-05T06:13:41;101851.44;;;3.96;100.00
65329;BME280;51941;52.210;5.158;2023-03-05T06:16:10;101801.50;;;3.65;100.00
65329;BME280;51941;52.210;5.158;2023-03-05T06:18:37;101849.47;;;3.89;100.00
65329;BME280;51941;52.210;5.158;2023-03-05T06:21:06;101850.13;;;3.83;100.00
65329;BME280;51941;52.210;5.158;2023-03-05T06:23:35;101854.03;;;3.79;100.00
65329;BME280;51941;52.210;5.158;2023-03-05T06:26:04;101857.94;;;3.75;100.00
65329;BME280;51941;52.210;5.158;2023-03-05T06:28:31;101834.34;;;3.59;100.00
65329;BME280;51941;52.210;5.158;2023-03-05T06:31:00;101855.16;;;3.69;100.00
65329;BME280;51941;52.210;5.158;2023-03-05T06:33:27;101855.50;;;3.66;100.00
65329;BME280;51941;52.210;5.158;2023-03-05T06:35:54;101858.91;;;3.66;100.00
65329;BME280;51941;52.210;5.158;2023-03-05T06:38:21;101857.44;;;3.64;100.00
65329;BME280;51941;52.210;5.158;2023-03-05T06:40:49;101847.97;;;3.63;100.00
65329;BME280;51941;52.210;5.158;2023-03-05T06:43:16;101839.41;;;3.52;100.00
65329;BME280;51941;52.210;5.158;2023-03-05T06:45:43;101857.78;;;3.69;100.00
65329;BME280;51941;52.210;5.158;2023-03-05T06:48:10;101868.41;;;3.75;100.00
65329;BME280;51941;52.210;5.158;2023-03-05T06:50:37;101855.69;;;3.80;100.00
65329;BME280;51941;52.210;5.158;2023-03-05T06:53:04;101853.22;;;3.87;100.00
65329;BME280;51941;52.210;5.158;2023-03-05T06:55:31;101859.81;;;3.99;100.00
65329;BME280;51941;52.210;5.158;2023-03-05T06:58:05;101852.25;;;4.04;100.00
65329;BME280;51941;52.210;5.158;2023-03-05T07:00:32;101856.69;;;4.04;100.00
65329;BME280;51941;52.210;5.158;2023-03-05T07:02:59;101851.44;;;4.12;100.00
65329;BME280;51941;52.210;5.158;2023-03-05T07:05:26;101866.34;;;4.19;100.00
65329;BME280;51941;52.210;5.158;2023-03-05T07:07:53;101858.00;;;4.24;100.00
65329;BME280;51941;52.210;5.158;2023-03-05T07:10:19;101854.88;;;4.28;100.00
65329;BME280;51941;52.210;5.158;2023-03-05T07:12:46;101825.75;;;4.15;100.00
65329;BME280;51941;52.210;5.158;2023-03-05T07:15:14;101853.91;;;4.38;100.00
65329;BME280;51941;52.210;5.158;2023-03-05T07:17:41;101851.13;;;4.39;100.00
65329;BME280;51941;52.210;5.158;2023-03-05T07:20:09;101824.09;;;4.30;100.00
65329;BME280;51941;52.210;5.158;2023-03-05T07:22:37;101842.25;;;4.48;100.00
65329;BME280;51941;52.210;5.158;2023-03-05T07:25:04;101836.84;;;4.50;100.00
65329;BME280;51941;52.210;5.158;2023-03-05T07:27:34;101845.53;;;4.58;100.00
65329;BME280;51941;52.210;5.158;2023-03-05T07:30:00;101825.56;;;4.49;100.00
65329;BME280;51941;52.210;5.158;2023-03-05T07:32:28;101839.59;;;4.64;100.00
65329;BME280;51941;52.210;5.158;2023-03-05T07:34:55;101847.66;;;4.71;100.00
65329;BME280;51941;52.210;5.158;2023-03-05T07:37:22;101825.84;;;4.71;100.00
65329;BME280;51941;52.210;5.158;2023-03-05T07:39:49;101818.31;;;4.67;100.00
65329;BME280;51941;52.210;5.158;2023-03-05T07:42:16;101838.25;;;4.85;100.00
65329;BME280;51941;52.210;5.158;2023-03-05T07:44:55;101800.94;;;4.66;100.00
65329;BME280;51941;52.210;5.158;2023-03-05T07:47:23;101833.50;;;4.96;100.00
65329;BME280;51941;52.210;5.158;2023-03-05T07:49:51;101845.63;;;5.06;100.00
65329;BME280;51941;52.210;5.158;2023-03-05T07:52:17;101849.69;;;5.08;100.00
65329;BME280;51941;52.210;5.158;2023-03-05T07:54:44;101842.31;;;5.12;100.00
65329;BME280;51941;52.210;5.158;2023-03-05T07:57:11;101837.88;;;5.12;100.00
65329;BME280;51941;52.210;5.158;2023-03-05T07:59:38;101843.47;;;5.01;100.00
65329;BME280;51941;52.210;5.158;2023-03-05T08:02:05;101837.56;;;4.99;100.00
65329;BME280;51941;52.210;5.158;2023-03-05T08:04:32;101801.53;;;4.85;100.00
65329;BME280;51941;52.210;5.158;2023-03-05T08:07:00;101835.72;;;5.16;100.00
65329;BME280;51941;52.210;5.158;2023-03-05T08:09:28;101833.91;;;5.24;100.00
65329;BME280;51941;52.210;5.158;2023-03-05T08:11:54;101826.75;;;5.41;100.00
65329;BME280;51941;52.210;5.158;2023-03-05T08:14:21;101821.91;;;5.53;100.00
65329;BME280;51941;52.210;5.158;2023-03-05T08:16:48;101817.09;;;5.64;100.00
65329;BME280;51941;52.210;5.158;2023-03-05T08:19:17;101802.63;;;5.68;99.76
65329;BME280;51941;52.210;5.158;2023-03-05T08:21:45;101827.19;;;5.98;99.51
65329;BME280;51941;52.210;5.158;2023-03-05T08:24:13;101818.28;;;6.22;99.14
65329;BME280;51941;52.210;5.158;2023-03-05T08:26:40;101813.69;;;6.39;98.08
65329;BME280;51941;52.210;5.158;2023-03-05T08:29:09;101764.97;;;6.13;96.06
65329;BME280;51941;52.210;5.158;2023-03-05T08:31:36;101809.06;;;6.41;94.61
65329;BME280;51941;52.210;5.158;2023-03-05T08:34:04;101804.53;;;6.35;94.01
65329;BME280;51941;52.210;5.158;2023-03-05T08:36:31;101809.69;;;6.28;93.25
65329;BME280;51941;52.210;5.158;2023-03-05T08:38:58;101807.75;;;6.22;93.52
65329;BME280;51941;52.210;5.158;2023-03-05T08:41:26;101800.78;;;6.14;93.05
65329;BME280;51941;52.210;5.158;2023-03-05T08:43:53;101808.44;;;6.01;92.93
65329;BME280;51941;52.210;5.158;2023-03-05T08:46:20;101752.81;;;5.75;93.46
65329;BME280;51941;52.210;5.158;2023-03-05T08:48:47;101766.72;;;5.84;93.70
65329;BME280;51941;52.210;5.158;2023-03-05T08:51:15;101802.75;;;6.12;94.17
65329;BME280;51941;52.210;5.158;2023-03-05T08:53:42;101799.50;;;6.10;94.13
65329;BME280;51941;52.210;5.158;2023-03-05T08:56:10;101797.06;;;6.09;93.93
65329;BME280;51941;52.210;5.158;2023-03-05T08:58:38;101783.88;;;5.94;93.29
65329;BME280;51941;52.210;5.158;2023-03-05T09:01:05;101783.50;;;5.97;93.86
65329;BME280;51941;52.210;5.158;2023-03-05T09:03:32;101786.53;;;6.09;93.88
65329;BME280;51941;52.210;5.158;2023-03-05T09:06:00;101792.00;;;6.22;93.95
65329;BME280;51941;52.210;5.158;2023-03-05T09:08:28;101780.22;;;6.33;93.20
65329;BME280;51941;52.210;5.158;2023-03-05T09:10:55;101782.25;;;6.45;92.37
65329;BME280;51941;52.210;5.158;2023-03-05T09:13:21;101774.44;;;6.52;91.45
65329;BME280;51941;52.210;5.158;2023-03-05T09:15:54;101774.91;;;6.55;90.65
65329;BME280;51941;52.210;5.158;2023-03-05T09:18:21;101776.09;;;6.38;89.45
65329;BME280;51941;52.210;5.158;2023-03-05T09:20:48;101769.28;;;6.29;89.39
65329;BME280;51941;52.210;5.158;2023-03-05T09:23:15;101781.94;;;6.26;91.02
65329;BME280;51941;52.210;5.158;2023-03-05T09:25:42;101784.50;;;6.48;91.04
65329;BME280;51941;52.210;5.158;2023-03-05T09:28:08;101773.38;;;6.61;90.92
65329;BME280;51941;52.210;5.158;2023-03-05T09:30:35;101769.00;;;6.68;90.23
65329;BME280;51941;52.210;5.158;2023-03-05T09:33:04;101726.22;;;6.45;89.06
65329;BME280;51941;52.210;5.158;2023-03-05T09:35:34;101749.25;;;6.72;88.68
65329;BME280;51941;52.210;5.158;2023-03-05T09:38:01;101762.00;;;6.75;87.36
65329;BME280;51941;52.210;5.158;2023-03-05T09:40:31;101746.03;;;6.77;87.35
65329;BME280;51941;52.210;5.158;2023-03-05T09:43:09;101755.28;;;6.87;85.99
65329;BME280;51941;52.210;5.158;2023-03-05T09:45:39;101763.97;;;7.03;85.96
65329;BME280;51941;52.210;5.158;2023-03-05T09:48:16;101766.34;;;6.98;85.43
65329;BME280;51941;52.210;5.158;2023-03-05T09:50:47;101763.97;;;7.17;86.02
65329;BME280;51941;52.210;5.158;2023-03-05T09:53:33;101766.56;;;7.32;84.98
65329;BME280;51941;52.210;5.158;2023-03-05T09:56:03;101760.81;;;7.43;83.66
65329;BME280;51941;52.210;5.158;2023-03-05T09:58:38;101758.81;;;7.45;82.21
65329;BME280;51941;52.210;5.158;2023-03-05T10:01:08;101763.75;;;7.55;80.75
65329;BME280;51941;52.210;5.158;2023-03-05T10:03:46;101759.91;;;7.36;80.58
65329;BME280;51941;52.210;5.158;2023-03-05T10:06:16;101739.00;;;7.13;80.97
65329;BME280;51941;52.210;5.158;2023-03-05T10:08:52;101746.28;;;6.97;80.32
65329;BME280;51941;52.210;5.158;2023-03-05T10:11:44;101750.28;;;7.07;81.71
65329;BME280;51941;52.210;5.158;2023-03-05T10:14:15;101742.63;;;7.12;81.26
65329;BME280;51941;52.210;5.158;2023-03-05T10:19:58;101747.06;;;7.26;80.96
65329;BME280;51941;52.210;5.158;2023-03-05T10:22:28;101732.16;;;7.34;80.68
65329;BME280;51941;52.210;5.158;2023-03-05T10:25:09;101739.34;;;7.46;80.30
65329;BME280;51941;52.210;5.158;2023-03-05T10:27:46;101708.91;;;7.22;79.12
65329;BME280;51941;52.210;5.158;2023-03-05T10:30:40;101727.06;;;7.53;78.97
65329;BME280;51941;52.210;5.158;2023-03-05T10:33:20;101700.44;;;7.42;78.16
65329;BME280;51941;52.210;5.158;2023-03-05T10:36:13;101713.66;;;7.48;76.58
65329;BME280;51941;52.210;5.158;2023-03-05T10:38:55;101717.59;;;7.59;75.34
65329;BME280;51941;52.210;5.158;2023-03-05T10:41:33;101719.16;;;7.75;74.63
65329;BME280;51941;52.210;5.158;2023-03-05T10:44:08;101710.00;;;7.71;73.65
65329;BME280;51941;52.210;5.158;2023-03-05T10:46:38;101708.88;;;7.58;74.39
65329;BME280;51941;52.210;5.158;2023-03-05T10:49:14;101705.28;;;7.66;74.39
65329;BME280;51941;52.210;5.158;2023-03-05T10:51:48;101703.94;;;7.70;73.40
65329;BME280;51941;52.210;5.158;2023-03-05T10:54:22;101697.84;;;7.70;72.46
65329;BME280;51941;52.210;5.158;2023-03-05T10:57:01;101691.50;;;7.64;73.61
65329;BME280;51941;52.210;5.158;2023-03-05T10:59:28;101690.63;;;7.78;73.53
65329;BME280;51941;52.210;5.158;2023-03-05T11:02:03;101682.44;;;8.01;73.09
65329;BME280;51941;52.210;5.158;2023-03-05T11:04:34;101679.94;;;8.21;72.70
65329;BME280;51941;52.210;5.158;2023-03-05T11:07:28;101672.03;;;8.21;70.71
65329;BME280;51941;52.210;5.158;2023-03-05T11:10:14;101662.94;;;8.30;69.28
65329;BME280;51941;52.210;5.158;2023-03-05T11:12:42;101642.06;;;8.35;69.14
65329;BME280;51941;52.210;5.158;2023-03-05T11:15:23;101641.13;;;8.49;67.41
65329;BME280;51941;52.210;5.158;2023-03-05T11:18:14;101648.63;;;8.52;67.27
65329;BME280;51941;52.210;5.158;2023-03-05T11:20:42;101645.19;;;8.52;68.25
65329;BME280;51941;52.210;5.158;2023-03-05T11:23:12;101652.06;;;8.46;69.20
65329;BME280;51941;52.210;5.158;2023-03-05T11:25:57;101645.31;;;8.37;66.45
65329;BME280;51941;52.210;5.158;2023-03-05T11:28:29;101635.81;;;8.42;64.68
65329;BME280;51941;52.210;5.158;2023-03-05T11:30:59;101642.16;;;8.55;64.43
65329;BME280;51941;52.210;5.158;2023-03-05T11:33:28;101643.94;;;8.41;66.08
65329;BME280;51941;52.210;5.158;2023-03-05T11:36:17;101575.09;;;7.88;66.40
65329;BME280;51941;52.210;5.158;2023-03-05T11:38:50;101628.00;;;8.21;67.51
65329;BME280;51941;52.210;5.158;2023-03-05T11:41:19;101629.28;;;8.32;66.96
65329;BME280;51941;52.210;5.158;2023-03-05T11:43:51;101607.13;;;8.26;66.94
65329;BME280;51941;52.210;5.158;2023-03-05T11:46:19;101614.22;;;8.26;66.43
65329;BME280;51941;52.210;5.158;2023-03-05T11:48:47;101622.78;;;8.34;67.19
65329;BME280;51941;52.210;5.158;2023-03-05T11:51:18;101621.78;;;8.42;66.76
65329;BME280;51941;52.210;5.158;2023-03-05T11:53:51;101612.66;;;8.38;67.22
65329;BME280;51941;52.210;5.158;2023-03-05T11:56:24;101602.13;;;8.44;67.76
65329;BME280;51941;52.210;5.158;2023-03-05T11:58:57;101613.72;;;8.50;68.28
65329;BME280;51941;52.210;5.158;2023-03-05T12:01:30;101619.41;;;8.54;69.03
65329;BME280;51941;52.210;5.158;2023-03-05T12:03:58;101564.53;;;8.29;69.72
65329;BME280;51941;52.210;5.158;2023-03-05T12:06:29;101602.19;;;8.64;69.06
65329;BME280;51941;52.210;5.158;2023-03-05T12:09:02;101600.97;;;8.60;69.74
65329;BME280;51941;52.210;5.158;2023-03-05T12:11:33;101585.31;;;8.52;69.84
65329;BME280;51941;52.210;5.158;2023-03-05T12:14:05;101576.72;;;8.30;70.40
65329;BME280;51941;52.210;5.158;2023-03-05T12:16:39;101585.09;;;8.47;70.48
65329;BME280;51941;52.210;5.158;2023-03-05T12:19:26;101566.13;;;8.24;70.92
65329;BME280;51941;52.210;5.158;2023-03-05T12:21:55;101560.72;;;8.38;71.57
65329;BME280;51941;52.210;5.158;2023-03-05T12:24:36;101572.53;;;8.56;70.30
65329;BME280;51941;52.210;5.158;2023-03-05T12:27:11;101574.63;;;8.73;70.14
65329;BME280;51941;52.210;5.158;2023-03-05T12:29:45;101565.06;;;8.79;69.87
65329;BME280;51941;52.210;5.158;2023-03-05T12:35:33;101525.88;;;8.69;68.31
65329;BME280;51941;52.210;5.158;2023-03-05T12:38:28;101542.16;;;8.93;66.30
65329;BME280;51941;52.210;5.158;2023-03-05T12:44:19;101538.06;;;9.03;66.06
65329;BME280;51941;52.210;5.158;2023-03-05T12:47:14;101521.63;;;9.08;65.40
65329;BME280;51941;52.210;5.158;2023-03-05T12:49:44;101522.44;;;9.15;65.00
65329;BME280;51941;52.210;5.158;2023-03-05T12:52:19;101474.09;;;8.95;65.20
65329;BME280;51941;52.210;5.158;2023-03-05T12:54:56;101505.59;;;9.36;64.75
65329;BME280;51941;52.210;5.158;2023-03-05T12:57:26;101482.44;;;9.18;64.94
65329;BME280;51941;52.210;5.158;2023-03-05T12:59:58;101501.31;;;9.41;64.17
65329;BME280;51941;52.210;5.158;2023-03-05T13:02:31;101411.75;;;8.87;63.44
65329;BME280;51941;52.210;5.158;2023-03-05T13:05:03;101499.13;;;9.18;62.55
65329;BME280;51941;52.210;5.158;2023-03-05T13:07:31;101491.56;;;9.35;63.90
65329;BME280;51941;52.210;5.158;2023-03-05T13:09:58;101485.47;;;9.15;63.04
65329;BME280;51941;52.210;5.158;2023-03-05T13:12:27;101487.31;;;9.21;63.65
65329;BME280;51941;52.210;5.158;2023-03-05T13:15:00;101481.00;;;9.35;62.97
65329;BME280;51941;52.210;5.158;2023-03-05T13:17:30;101453.72;;;9.48;63.19
65329;BME280;51941;52.210;5.158;2023-03-05T13:19:57;101466.13;;;9.54;61.60